sensor_id;sensor_type;location;lat;lon;timestamp;P1;durP1;ratioP1;P2;durP2;ratioP2
39896;SDS011;25567;48.276;14.242;2023-01-25T00:01:59;54.33;;;19.15;;
39896;SDS011;25567;48.276;14.242;2023-01-25T00:04:26;55.45;;;18.20;;
39896;SDS011;25567;48.276;14.242;2023-01-25T00:06:53;51.92;;;18.80;;
39896;SDS011;25567;48.276;14.242;2023-01-25T00:09:22;60.78;;;19.52;;
39896;SDS011;25567;48.276;14.242;2023-01-25T00:11:49;46.95;;;17.17;;
39896;SDS011;25567;48.276;14.242;2023-01-25T00:14:16;51.25;;;18.08;;
39896;SDS011;25567;48.276;14.242;2023-01-25T00:16:43;44.80;;;17.30;;
39896;SDS011;25567;48.276;14.242;2023-01-25T00:19:10;43.75;;;16.25;;
39896;SDS011;25567;48.276;14.242;2023-01-25T00:21:37;43.45;;;16.63;;
39896;SDS011;25567;48.276;14.242;2023-01-25T00:24:04;44.67;;;15.38;;
39896;SDS011;25567;48.276;14.242;2023-01-25T00:26:40;45.28;;;15.90;;
39896;SDS011;25567;48.276;14.242;2023-01-25T00:29:11;52.55;;;16.70;;
39896;SDS011;25567;48.276;14.242;2023-01-25T00:36:56;40.42;;;15.32;;
39896;SDS011;25567;48.276;14.242;2023-01-25T00:39:38;41.00;;;15.38;;
39896;SDS011;25567;48.276;14.242;2023-01-25T00:42:07;41.80;;;15.13;;
39896;SDS011;25567;48.276;14.242;2023-01-25T00:44:36;44.53;;;16.17;;
39896;SDS011;25567;48.276;14.242;2023-01-25T00:47:03;41.78;;;14.70;;
39896;SDS011;25567;48.276;14.242;2023-01-25T00:49:30;40.75;;;15.60;;
39896;SDS011;25567;48.276;14.242;2023-01-25T00:51:58;46.67;;;16.40;;
39896;SDS011;25567;48.276;14.242;2023-01-25T00:54:25;39.60;;;15.38;;
39896;SDS011;25567;48.276;14.242;2023-01-25T00:56:52;38.95;;;14.93;;
39896;SDS011;25567;48.276;14.242;2023-01-25T00:59:22;40.47;;;14.90;;
39896;SDS011;25567;48.276;14.242;2023-01-25T01:01:50;40.22;;;15.68;;
39896;SDS011;25567;48.276;14.242;2023-01-25T01:04:17;44.92;;;16.83;;
39896;SDS011;25567;48.276;14.242;2023-01-25T01:06:45;37.63;;;15.48;;
39896;SDS011;25567;48.276;14.242;2023-01-25T01:09:13;47.67;;;16.17;;
39896;SDS011;25567;48.276;14.242;2023-01-25T01:11:41;45.08;;;14.88;;
39896;SDS011;25567;48.276;14.242;2023-01-25T01:14:08;42.80;;;15.32;;
39896;SDS011;25567;48.276;14.242;2023-01-25T01:16:35;40.60;;;15.30;;
39896;SDS011;25567;48.276;14.242;2023-01-25T01:19:02;41.33;;;15.52;;
39896;SDS011;25567;48.276;14.242;2023-01-25T01:21:29;47.45;;;16.50;;
39896;SDS011;25567;48.276;14.242;2023-01-25T01:23:55;46.20;;;15.80;;
39896;SDS011;25567;48.276;14.242;2023-01-25T01:26:22;43.22;;;15.77;;
39896;SDS011;25567;48.276;14.242;2023-01-25T01:28:49;40.08;;;15.38;;
39896;SDS011;25567;48.276;14.242;2023-01-25T01:31:17;43.92;;;16.48;;
39896;SDS011;25567;48.276;14.242;2023-01-25T01:33:48;42.67;;;15.85;;
39896;SDS011;25567;48.276;14.242;2023-01-25T01:36:17;42.47;;;15.70;;
39896;SDS011;25567;48.276;14.242;2023-01-25T01:38:45;44.25;;;15.88;;
39896;SDS011;25567;48.276;14.242;2023-01-25T01:41:12;45.10;;;15.18;;
39896;SDS011;25567;48.276;14.242;2023-01-25T01:43:40;42.83;;;15.05;;
39896;SDS011;25567;48.276;14.242;2023-01-25T01:46:09;47.70;;;16.45;;
39896;SDS011;25567;48.276;14.242;2023-01-25T01:51:18;41.60;;;15.40;;
39896;SDS011;25567;48.276;14.242;2023-01-25T01:53:52;45.75;;;15.25;;
39896;SDS011;25567;48.276;14.242;2023-01-25T01:56:26;44.38;;;16.15;;
39896;SDS011;25567;48.276;14.242;2023-01-25T01:58:57;43.75;;;15.07;;
39896;SDS011;25567;48.276;14.242;2023-01-25T02:01:25;46.35;;;16.60;;
39896;SDS011;25567;48.276;14.242;2023-01-25T02:03:52;44.58;;;16.38;;
39896;SDS011;25567;48.276;14.242;2023-01-25T02:06:24;43.13;;;16.42;;
39896;SDS011;25567;48.276;14.242;2023-01-25T02:08:56;44.50;;;16.90;;
39896;SDS011;25567;48.276;14.242;2023-01-25T02:11:23;47.35;;;16.88;;
39896;SDS011;25567;48.276;14.242;2023-01-25T02:13:52;42.13;;;16.23;;
39896;SDS011;25567;48.276;14.242;2023-01-25T02:16:21;42.33;;;16.08;;
39896;SDS011;25567;48.276;14.242;2023-01-25T02:18:51;38.45;;;15.82;;
39896;SDS011;25567;48.276;14.242;2023-01-25T02:21:19;42.90;;;17.15;;
39896;SDS011;25567;48.276;14.242;2023-01-25T02:23:58;53.13;;;20.13;;
39896;SDS011;25567;48.276;14.242;2023-01-25T02:26:32;60.60;;;21.67;;
39896;SDS011;25567;48.276;14.242;2023-01-25T02:29:02;58.65;;;20.48;;
39896;SDS011;25567;48.276;14.242;2023-01-25T02:31:31;60.90;;;20.30;;
39896;SDS011;25567;48.276;14.242;2023-01-25T02:33:58;56.05;;;20.30;;
39896;SDS011;25567;48.276;14.242;2023-01-25T02:36:26;49.38;;;19.02;;
39896;SDS011;25567;48.276;14.242;2023-01-25T02:39:00;49.85;;;19.00;;
39896;SDS011;25567;48.276;14.242;2023-01-25T02:41:30;59.05;;;20.95;;
39896;SDS011;25567;48.276;14.242;2023-01-25T02:43:58;68.53;;;22.15;;
39896;SDS011;25567;48.276;14.242;2023-01-25T02:46:26;66.22;;;20.48;;
39896;SDS011;25567;48.276;14.242;2023-01-25T02:48:57;50.22;;;20.02;;
39896;SDS011;25567;48.276;14.242;2023-01-25T02:51:25;59.17;;;20.27;;
39896;SDS011;25567;48.276;14.242;2023-01-25T02:53:53;52.97;;;18.45;;
39896;SDS011;25567;48.276;14.242;2023-01-25T02:56:21;51.97;;;18.38;;
39896;SDS011;25567;48.276;14.242;2023-01-25T02:58:48;50.58;;;18.65;;
39896;SDS011;25567;48.276;14.242;2023-01-25T03:01:15;49.38;;;18.25;;
39896;SDS011;25567;48.276;14.242;2023-01-25T03:03:42;48.97;;;16.85;;
39896;SDS011;25567;48.276;14.242;2023-01-25T03:06:09;48.47;;;17.15;;
39896;SDS011;25567;48.276;14.242;2023-01-25T03:08:36;49.20;;;16.85;;
39896;SDS011;25567;48.276;14.242;2023-01-25T03:11:03;51.88;;;17.73;;
39896;SDS011;25567;48.276;14.242;2023-01-25T03:13:32;54.72;;;18.73;;
39896;SDS011;25567;48.276;14.242;2023-01-25T03:16:00;55.22;;;19.15;;
39896;SDS011;25567;48.276;14.242;2023-01-25T03:18:29;49.13;;;17.73;;
39896;SDS011;25567;48.276;14.242;2023-01-25T03:20:56;53.38;;;19.35;;
39896;SDS011;25567;48.276;14.242;2023-01-25T03:23:28;48.72;;;17.25;;
39896;SDS011;25567;48.276;14.242;2023-01-25T03:26:02;48.03;;;17.88;;
39896;SDS011;25567;48.276;14.242;2023-01-25T03:28:31;48.80;;;17.70;;
39896;SDS011;25567;48.276;14.242;2023-01-25T03:30:57;49.88;;;17.40;;
39896;SDS011;25567;48.276;14.242;2023-01-25T03:33:24;50.45;;;18.92;;
39896;SDS011;25567;48.276;14.242;2023-01-25T03:35:51;51.97;;;17.95;;
39896;SDS011;25567;48.276;14.242;2023-01-25T03:38:19;47.08;;;18.77;;
39896;SDS011;25567;48.276;14.242;2023-01-25T03:40:46;49.35;;;18.02;;
39896;SDS011;25567;48.276;14.242;2023-01-25T03:43:13;56.88;;;19.05;;
39896;SDS011;25567;48.276;14.242;2023-01-25T03:45:40;57.17;;;20.40;;
39896;SDS011;25567;48.276;14.242;2023-01-25T03:48:06;61.63;;;21.25;;
39896;SDS011;25567;48.276;14.242;2023-01-25T03:50:33;51.08;;;19.83;;
39896;SDS011;25567;48.276;14.242;2023-01-25T03:53:00;62.40;;;21.40;;
39896;SDS011;25567;48.276;14.242;2023-01-25T03:55:32;54.30;;;19.75;;
39896;SDS011;25567;48.276;14.242;2023-01-25T03:57:59;55.30;;;20.00;;
39896;SDS011;25567;48.276;14.242;2023-01-25T04:00:26;50.90;;;19.13;;
39896;SDS011;25567;48.276;14.242;2023-01-25T04:02:53;47.72;;;18.02;;
39896;SDS011;25567;48.276;14.242;2023-01-25T04:05:19;50.65;;;18.02;;
39896;SDS011;25567;48.276;14.242;2023-01-25T04:07:46;51.00;;;17.92;;
39896;SDS011;25567;48.276;14.242;2023-01-25T04:10:12;50.92;;;17.95;;
39896;SDS011;25567;48.276;14.242;2023-01-25T04:12:39;45.47;;;17.85;;
39896;SDS011;25567;48.276;14.242;2023-01-25T04:15:06;42.88;;;16.48;;
39896;SDS011;25567;48.276;14.242;2023-01-25T04:17:33;50.05;;;17.98;;
39896;SDS011;25567;48.276;14.242;2023-01-25T04:20:00;46.40;;;17.70;;
39896;SDS011;25567;48.276;14.242;2023-01-25T04:22:27;48.15;;;16.92;;
39896;SDS011;25567;48.276;14.242;2023-01-25T04:24:53;46.50;;;16.67;;
39896;SDS011;25567;48.276;14.242;2023-01-25T04:27:26;43.85;;;16.63;;
39896;SDS011;25567;48.276;14.242;2023-01-25T04:29:53;47.25;;;17.65;;
39896;SDS011;25567;48.276;14.242;2023-01-25T04:32:19;54.58;;;18.55;;
39896;SDS011;25567;48.276;14.242;2023-01-25T04:34:46;49.97;;;18.13;;
39896;SDS011;25567;48.276;14.242;2023-01-25T04:37:13;45.97;;;18.75;;
39896;SDS011;25567;48.276;14.242;2023-01-25T04:39:39;48.30;;;16.98;;
39896;SDS011;25567;48.276;14.242;2023-01-25T04:42:06;45.45;;;15.95;;
39896;SDS011;25567;48.276;14.242;2023-01-25T04:44:32;44.97;;;16.13;;
39896;SDS011;25567;48.276;14.242;2023-01-25T04:46:59;43.05;;;15.68;;
39896;SDS011;25567;48.276;14.242;2023-01-25T04:49:26;43.47;;;16.45;;
39896;SDS011;25567;48.276;14.242;2023-01-25T04:51:52;48.97;;;17.20;;
39896;SDS011;25567;48.276;14.242;2023-01-25T04:54:19;47.70;;;16.10;;
39896;SDS011;25567;48.276;14.242;2023-01-25T04:56:45;43.47;;;16.60;;
39896;SDS011;25567;48.276;14.242;2023-01-25T04:59:12;49.25;;;16.60;;
39896;SDS011;25567;48.276;14.242;2023-01-25T05:01:39;57.28;;;19.20;;
39896;SDS011;25567;48.276;14.242;2023-01-25T05:04:05;59.42;;;20.50;;
39896;SDS011;25567;48.276;14.242;2023-01-25T05:06:32;56.13;;;20.23;;
39896;SDS011;25567;48.276;14.242;2023-01-25T05:08:59;62.83;;;21.13;;
39896;SDS011;25567;48.276;14.242;2023-01-25T05:11:25;61.65;;;21.20;;
39896;SDS011;25567;48.276;14.242;2023-01-25T05:13:52;60.25;;;21.77;;
39896;SDS011;25567;48.276;14.242;2023-01-25T05:16:20;64.82;;;22.35;;
39896;SDS011;25567;48.276;14.242;2023-01-25T05:18:46;57.90;;;20.63;;
39896;SDS011;25567;48.276;14.242;2023-01-25T05:21:14;46.25;;;18.10;;
39896;SDS011;25567;48.276;14.242;2023-01-25T05:23:56;47.97;;;18.88;;
39896;SDS011;25567;48.276;14.242;2023-01-25T05:26:23;52.45;;;18.98;;
39896;SDS011;25567;48.276;14.242;2023-01-25T05:29:05;51.33;;;18.33;;
39896;SDS011;25567;48.276;14.242;2023-01-25T05:31:32;53.70;;;18.73;;
39896;SDS011;25567;48.276;14.242;2023-01-25T05:33:58;51.97;;;18.30;;
39896;SDS011;25567;48.276;14.242;2023-01-25T05:36:25;54.80;;;18.85;;
39896;SDS011;25567;48.276;14.242;2023-01-25T05:38:52;50.22;;;19.23;;
39896;SDS011;25567;48.276;14.242;2023-01-25T05:41:18;46.67;;;16.83;;
39896;SDS011;25567;48.276;14.242;2023-01-25T05:43:47;45.05;;;15.20;;
39896;SDS011;25567;48.276;14.242;2023-01-25T05:46:17;45.60;;;16.45;;
39896;SDS011;25567;48.276;14.242;2023-01-25T05:48:45;52.08;;;17.02;;
39896;SDS011;25567;48.276;14.242;2023-01-25T05:51:12;43.78;;;15.48;;
39896;SDS011;25567;48.276;14.242;2023-01-25T05:53:39;45.97;;;15.43;;
39896;SDS011;25567;48.276;14.242;2023-01-25T05:56:06;46.60;;;15.77;;
39896;SDS011;25567;48.276;14.242;2023-01-25T05:58:35;49.70;;;15.18;;
39896;SDS011;25567;48.276;14.242;2023-01-25T06:01:03;45.33;;;16.05;;
39896;SDS011;25567;48.276;14.242;2023-01-25T06:03:32;43.58;;;15.15;;
39896;SDS011;25567;48.276;14.242;2023-01-25T06:06:00;42.80;;;15.20;;
39896;SDS011;25567;48.276;14.242;2023-01-25T06:08:29;45.90;;;14.85;;
39896;SDS011;25567;48.276;14.242;2023-01-25T06:10:57;41.17;;;14.20;;
39896;SDS011;25567;48.276;14.242;2023-01-25T06:13:24;43.25;;;14.95;;
39896;SDS011;25567;48.276;14.242;2023-01-25T06:15:52;46.00;;;16.92;;
39896;SDS011;25567;48.276;14.242;2023-01-25T06:18:20;46.20;;;15.27;;
39896;SDS011;25567;48.276;14.242;2023-01-25T06:20:47;43.50;;;15.70;;
39896;SDS011;25567;48.276;14.242;2023-01-25T06:23:14;46.13;;;16.05;;
39896;SDS011;25567;48.276;14.242;2023-01-25T06:25:40;47.88;;;15.90;;
39896;SDS011;25567;48.276;14.242;2023-01-25T06:28:07;44.75;;;15.90;;
39896;SDS011;25567;48.276;14.242;2023-01-25T06:30:34;48.08;;;17.92;;
39896;SDS011;25567;48.276;14.242;2023-01-25T06:33:01;51.53;;;16.90;;
39896;SDS011;25567;48.276;14.242;2023-01-25T06:35:27;44.40;;;16.02;;
39896;SDS011;25567;48.276;14.242;2023-01-25T06:37:57;47.17;;;16.42;;
39896;SDS011;25567;48.276;14.242;2023-01-25T06:40:25;51.72;;;18.42;;
39896;SDS011;25567;48.276;14.242;2023-01-25T06:42:53;51.13;;;18.25;;
39896;SDS011;25567;48.276;14.242;2023-01-25T06:45:20;49.80;;;18.02;;
39896;SDS011;25567;48.276;14.242;2023-01-25T06:47:47;47.65;;;17.17;;
39896;SDS011;25567;48.276;14.242;2023-01-25T06:50:14;47.75;;;16.25;;
39896;SDS011;25567;48.276;14.242;2023-01-25T06:52:41;46.90;;;16.30;;
39896;SDS011;25567;48.276;14.242;2023-01-25T06:55:08;47.28;;;16.48;;
39896;SDS011;25567;48.276;14.242;2023-01-25T06:57:39;54.97;;;16.00;;
39896;SDS011;25567;48.276;14.242;2023-01-25T07:00:05;43.72;;;15.88;;
39896;SDS011;25567;48.276;14.242;2023-01-25T07:02:32;46.90;;;15.52;;
39896;SDS011;25567;48.276;14.242;2023-01-25T07:04:59;42.38;;;14.18;;
39896;SDS011;25567;48.276;14.242;2023-01-25T07:07:26;47.47;;;16.23;;
39896;SDS011;25567;48.276;14.242;2023-01-25T07:09:52;46.28;;;15.73;;
39896;SDS011;25567;48.276;14.242;2023-01-25T07:12:19;51.83;;;15.95;;
39896;SDS011;25567;48.276;14.242;2023-01-25T07:14:47;46.40;;;15.35;;
39896;SDS011;25567;48.276;14.242;2023-01-25T07:17:14;46.78;;;16.33;;
39896;SDS011;25567;48.276;14.242;2023-01-25T07:19:41;48.25;;;16.25;;
39896;SDS011;25567;48.276;14.242;2023-01-25T07:22:07;49.42;;;16.30;;
39896;SDS011;25567;48.276;14.242;2023-01-25T07:24:34;44.70;;;14.05;;
39896;SDS011;25567;48.276;14.242;2023-01-25T07:27:01;44.83;;;15.10;;
39896;SDS011;25567;48.276;14.242;2023-01-25T07:29:27;56.15;;;18.45;;
39896;SDS011;25567;48.276;14.242;2023-01-25T07:31:55;45.60;;;17.17;;
39896;SDS011;25567;48.276;14.242;2023-01-25T07:34:21;46.00;;;15.88;;
39896;SDS011;25567;48.276;14.242;2023-01-25T07:36:48;45.40;;;17.10;;
39896;SDS011;25567;48.276;14.242;2023-01-25T07:39:15;42.72;;;15.45;;
39896;SDS011;25567;48.276;14.242;2023-01-25T07:41:42;43.92;;;14.73;;
39896;SDS011;25567;48.276;14.242;2023-01-25T07:44:09;42.13;;;14.60;;
39896;SDS011;25567;48.276;14.242;2023-01-25T07:46:35;40.25;;;15.18;;
39896;SDS011;25567;48.276;14.242;2023-01-25T07:49:02;46.40;;;16.45;;
39896;SDS011;25567;48.276;14.242;2023-01-25T07:51:28;48.38;;;16.52;;
39896;SDS011;25567;48.276;14.242;2023-01-25T07:53:57;45.70;;;16.88;;
39896;SDS011;25567;48.276;14.242;2023-01-25T07:56:26;54.42;;;16.05;;
39896;SDS011;25567;48.276;14.242;2023-01-25T07:58:54;50.30;;;17.67;;
39896;SDS011;25567;48.276;14.242;2023-01-25T08:01:23;50.47;;;15.95;;
39896;SDS011;25567;48.276;14.242;2023-01-25T08:03:51;42.05;;;15.70;;
39896;SDS011;25567;48.276;14.242;2023-01-25T08:06:22;46.72;;;16.27;;
39896;SDS011;25567;48.276;14.242;2023-01-25T08:08:52;58.65;;;18.42;;
39896;SDS011;25567;48.276;14.242;2023-01-25T08:11:21;49.63;;;17.05;;
39896;SDS011;25567;48.276;14.242;2023-01-25T08:13:49;56.65;;;17.30;;
39896;SDS011;25567;48.276;14.242;2023-01-25T08:16:17;52.80;;;17.92;;
39896;SDS011;25567;48.276;14.242;2023-01-25T08:18:46;54.58;;;16.30;;
39896;SDS011;25567;48.276;14.242;2023-01-25T08:21:15;47.28;;;17.00;;
39896;SDS011;25567;48.276;14.242;2023-01-25T08:23:41;46.75;;;16.92;;
39896;SDS011;25567;48.276;14.242;2023-01-25T08:26:09;47.50;;;16.15;;
39896;SDS011;25567;48.276;14.242;2023-01-25T08:28:43;51.58;;;17.17;;
39896;SDS011;25567;48.276;14.242;2023-01-25T08:31:11;47.33;;;16.48;;
39896;SDS011;25567;48.276;14.242;2023-01-25T08:33:42;48.25;;;17.25;;
39896;SDS011;25567;48.276;14.242;2023-01-25T08:36:11;56.17;;;18.77;;
39896;SDS011;25567;48.276;14.242;2023-01-25T08:38:39;59.10;;;18.10;;
39896;SDS011;25567;48.276;14.242;2023-01-25T08:41:07;45.85;;;16.70;;
39896;SDS011;25567;48.276;14.242;2023-01-25T08:43:35;49.20;;;16.40;;
39896;SDS011;25567;48.276;14.242;2023-01-25T08:46:03;47.15;;;16.50;;
39896;SDS011;25567;48.276;14.242;2023-01-25T08:48:30;43.88;;;15.55;;
39896;SDS011;25567;48.276;14.242;2023-01-25T08:50:57;42.55;;;15.45;;
39896;SDS011;25567;48.276;14.242;2023-01-25T08:53:26;45.28;;;17.15;;
39896;SDS011;25567;48.276;14.242;2023-01-25T08:55:53;46.63;;;16.02;;
39896;SDS011;25567;48.276;14.242;2023-01-25T08:58:20;41.40;;;14.80;;
39896;SDS011;25567;48.276;14.242;2023-01-25T09:00:48;43.30;;;16.13;;
39896;SDS011;25567;48.276;14.242;2023-01-25T09:03:14;43.65;;;15.05;;
39896;SDS011;25567;48.276;14.242;2023-01-25T09:05:43;41.85;;;15.55;;
39896;SDS011;25567;48.276;14.242;2023-01-25T09:08:10;45.10;;;15.00;;
39896;SDS011;25567;48.276;14.242;2023-01-25T09:10:36;43.42;;;15.80;;
39896;SDS011;25567;48.276;14.242;2023-01-25T09:13:03;44.42;;;15.73;;
39896;SDS011;25567;48.276;14.242;2023-01-25T09:15:33;46.00;;;15.70;;
39896;SDS011;25567;48.276;14.242;2023-01-25T09:18:00;45.50;;;14.90;;
39896;SDS011;25567;48.276;14.242;2023-01-25T09:20:26;41.85;;;14.43;;
39896;SDS011;25567;48.276;14.242;2023-01-25T09:22:58;45.45;;;16.35;;
39896;SDS011;25567;48.276;14.242;2023-01-25T09:25:24;47.70;;;15.27;;
39896;SDS011;25567;48.276;14.242;2023-01-25T09:27:51;45.80;;;16.60;;
39896;SDS011;25567;48.276;14.242;2023-01-25T09:30:17;50.05;;;16.50;;
39896;SDS011;25567;48.276;14.242;2023-01-25T09:32:47;45.60;;;16.58;;
39896;SDS011;25567;48.276;14.242;2023-01-25T09:35:15;48.95;;;15.55;;
39896;SDS011;25567;48.276;14.242;2023-01-25T09:37:42;47.95;;;16.48;;
39896;SDS011;25567;48.276;14.242;2023-01-25T09:40:12;48.45;;;16.50;;
39896;SDS011;25567;48.276;14.242;2023-01-25T09:42:55;48.00;;;16.77;;
39896;SDS011;25567;48.276;14.242;2023-01-25T09:45:33;44.15;;;15.32;;
39896;SDS011;25567;48.276;14.242;2023-01-25T09:48:03;41.35;;;14.90;;
39896;SDS011;25567;48.276;14.242;2023-01-25T09:50:44;43.45;;;15.63;;
39896;SDS011;25567;48.276;14.242;2023-01-25T09:55:41;47.70;;;15.07;;
39896;SDS011;25567;48.276;14.242;2023-01-25T09:58:13;51.25;;;16.98;;
39896;SDS011;25567;48.276;14.242;2023-01-25T10:00:44;44.60;;;15.73;;
39896;SDS011;25567;48.276;14.242;2023-01-25T10:05:57;45.42;;;14.57;;
39896;SDS011;25567;48.276;14.242;2023-01-25T10:08:30;39.15;;;14.25;;
39896;SDS011;25567;48.276;14.242;2023-01-25T10:11:01;38.13;;;13.63;;
39896;SDS011;25567;48.276;14.242;2023-01-25T10:13:34;38.72;;;13.88;;
39896;SDS011;25567;48.276;14.242;2023-01-25T10:16:02;46.25;;;15.23;;
39896;SDS011;25567;48.276;14.242;2023-01-25T10:21:11;41.67;;;14.05;;
39896;SDS011;25567;48.276;14.242;2023-01-25T10:26:28;40.60;;;13.52;;
39896;SDS011;25567;48.276;14.242;2023-01-25T10:29:02;42.50;;;13.20;;
39896;SDS011;25567;48.276;14.242;2023-01-25T10:31:49;37.70;;;12.65;;
39896;SDS011;25567;48.276;14.242;2023-01-25T10:34:19;34.58;;;12.73;;
39896;SDS011;25567;48.276;14.242;2023-01-25T10:36:53;40.33;;;14.02;;
39896;SDS011;25567;48.276;14.242;2023-01-25T10:39:21;38.15;;;13.93;;
39896;SDS011;25567;48.276;14.242;2023-01-25T10:41:52;45.53;;;14.10;;
39896;SDS011;25567;48.276;14.242;2023-01-25T10:44:24;39.00;;;13.73;;
39896;SDS011;25567;48.276;14.242;2023-01-25T10:54:44;45.00;;;15.10;;
39896;SDS011;25567;48.276;14.242;2023-01-25T10:57:13;48.67;;;16.23;;
39896;SDS011;25567;48.276;14.242;2023-01-25T10:59:45;43.35;;;15.45;;
39896;SDS011;25567;48.276;14.242;2023-01-25T11:05:23;41.05;;;16.08;;
39896;SDS011;25567;48.276;14.242;2023-01-25T11:07:51;42.00;;;14.80;;
39896;SDS011;25567;48.276;14.242;2023-01-25T11:15:48;46.45;;;14.55;;
39896;SDS011;25567;48.276;14.242;2023-01-25T11:18:22;38.78;;;13.77;;
39896;SDS011;25567;48.276;14.242;2023-01-25T11:23:37;37.58;;;13.85;;
39896;SDS011;25567;48.276;14.242;2023-01-25T11:26:10;36.92;;;12.68;;
39896;SDS011;25567;48.276;14.242;2023-01-25T11:28:40;28.55;;;11.48;;
39896;SDS011;25567;48.276;14.242;2023-01-25T11:31:08;32.95;;;12.35;;
39896;SDS011;25567;48.276;14.242;2023-01-25T11:33:38;36.65;;;12.85;;
39896;SDS011;25567;48.276;14.242;2023-01-25T11:36:12;33.05;;;12.00;;
39896;SDS011;25567;48.276;14.242;2023-01-25T11:41:47;34.78;;;11.93;;
39896;SDS011;25567;48.276;14.242;2023-01-25T11:49:54;49.20;;;15.07;;
39896;SDS011;25567;48.276;14.242;2023-01-25T11:52:30;40.60;;;14.18;;
39896;SDS011;25567;48.276;14.242;2023-01-25T11:55:12;41.92;;;15.85;;
39896;SDS011;25567;48.276;14.242;2023-01-25T12:00:47;46.22;;;15.95;;
39896;SDS011;25567;48.276;14.242;2023-01-25T12:19:39;37.55;;;13.65;;
39896;SDS011;25567;48.276;14.242;2023-01-25T12:22:18;42.58;;;13.73;;
39896;SDS011;25567;48.276;14.242;2023-01-25T12:30:40;42.95;;;14.18;;
39896;SDS011;25567;48.276;14.242;2023-01-25T12:33:19;50.72;;;16.40;;
39896;SDS011;25567;48.276;14.242;2023-01-25T12:35:57;44.97;;;14.88;;
39896;SDS011;25567;48.276;14.242;2023-01-25T12:38:28;48.65;;;16.50;;
39896;SDS011;25567;48.276;14.242;2023-01-25T12:41:14;42.97;;;15.02;;
39896;SDS011;25567;48.276;14.242;2023-01-25T12:44:02;47.25;;;16.42;;
39896;SDS011;25567;48.276;14.242;2023-01-25T12:46:43;42.67;;;14.88;;
39896;SDS011;25567;48.276;14.242;2023-01-25T12:49:20;56.05;;;16.92;;
39896;SDS011;25567;48.276;14.242;2023-01-25T12:51:53;39.85;;;13.60;;
39896;SDS011;25567;48.276;14.242;2023-01-25T12:54:27;38.28;;;14.02;;
39896;SDS011;25567;48.276;14.242;2023-01-25T13:05:09;39.88;;;13.57;;
39896;SDS011;25567;48.276;14.242;2023-01-25T13:10:29;37.03;;;13.60;;
39896;SDS011;25567;48.276;14.242;2023-01-25T13:13:17;36.92;;;14.13;;
39896;SDS011;25567;48.276;14.242;2023-01-25T13:15:46;42.00;;;14.05;;
39896;SDS011;25567;48.276;14.242;2023-01-25T13:20:59;36.28;;;12.82;;
39896;SDS011;25567;48.276;14.242;2023-01-25T13:28:54;36.35;;;11.60;;
39896;SDS011;25567;48.276;14.242;2023-01-25T13:31:57;35.78;;;13.48;;
39896;SDS011;25567;48.276;14.242;2023-01-25T13:37:02;49.10;;;16.27;;
39896;SDS011;25567;48.276;14.242;2023-01-25T13:39:46;46.03;;;14.43;;
39896;SDS011;25567;48.276;14.242;2023-01-25T13:42:17;37.45;;;13.98;;
39896;SDS011;25567;48.276;14.242;2023-01-25T13:44:49;41.90;;;13.57;;
39896;SDS011;25567;48.276;14.242;2023-01-25T13:47:21;40.15;;;13.63;;
39896;SDS011;25567;48.276;14.242;2023-01-25T13:49:59;40.28;;;13.80;;
39896;SDS011;25567;48.276;14.242;2023-01-25T13:52:29;44.17;;;13.55;;
39896;SDS011;25567;48.276;14.242;2023-01-25T13:54:57;35.13;;;12.70;;
39896;SDS011;25567;48.276;14.242;2023-01-25T13:57:29;34.90;;;11.15;;
39896;SDS011;25567;48.276;14.242;2023-01-25T14:00:01;32.58;;;11.45;;
39896;SDS011;25567;48.276;14.242;2023-01-25T14:02:36;34.85;;;11.65;;
39896;SDS011;25567;48.276;14.242;2023-01-25T14:05:05;33.83;;;12.15;;
39896;SDS011;25567;48.276;14.242;2023-01-25T14:07:43;33.30;;;10.93;;
39896;SDS011;25567;48.276;14.242;2023-01-25T14:10:13;32.70;;;11.40;;
39896;SDS011;25567;48.276;14.242;2023-01-25T14:12:48;33.33;;;11.45;;
39896;SDS011;25567;48.276;14.242;2023-01-25T14:15:19;38.97;;;11.32;;
39896;SDS011;25567;48.276;14.242;2023-01-25T14:20:40;30.80;;;11.77;;
39896;SDS011;25567;48.276;14.242;2023-01-25T14:25:53;33.95;;;11.80;;
39896;SDS011;25567;48.276;14.242;2023-01-25T14:28:24;30.85;;;11.45;;
39896;SDS011;25567;48.276;14.242;2023-01-25T14:30:53;35.53;;;12.52;;
39896;SDS011;25567;48.276;14.242;2023-01-25T14:33:26;33.50;;;12.50;;
39896;SDS011;25567;48.276;14.242;2023-01-25T14:36:05;35.08;;;12.18;;
39896;SDS011;25567;48.276;14.242;2023-01-25T14:38:49;31.92;;;11.45;;
39896;SDS011;25567;48.276;14.242;2023-01-25T14:41:18;32.20;;;11.10;;
39896;SDS011;25567;48.276;14.242;2023-01-25T14:43:48;36.38;;;12.52;;
39896;SDS011;25567;48.276;14.242;2023-01-25T14:49:15;41.60;;;12.30;;
39896;SDS011;25567;48.276;14.242;2023-01-25T14:52:01;32.97;;;11.68;;
39896;SDS011;25567;48.276;14.242;2023-01-25T14:54:35;36.83;;;13.10;;
39896;SDS011;25567;48.276;14.242;2023-01-25T14:57:41;36.05;;;12.65;;
39896;SDS011;25567;48.276;14.242;2023-01-25T15:00:16;37.05;;;13.13;;
39896;SDS011;25567;48.276;14.242;2023-01-25T15:02:46;47.13;;;14.00;;
39896;SDS011;25567;48.276;14.242;2023-01-25T15:05:16;38.58;;;12.63;;
39896;SDS011;25567;48.276;14.242;2023-01-25T15:21:12;38.25;;;13.13;;
39896;SDS011;25567;48.276;14.242;2023-01-25T15:23:45;37.80;;;12.15;;
39896;SDS011;25567;48.276;14.242;2023-01-25T15:26:17;41.05;;;14.45;;
39896;SDS011;25567;48.276;14.242;2023-01-25T15:28:46;40.60;;;13.82;;
39896;SDS011;25567;48.276;14.242;2023-01-25T15:31:17;40.38;;;13.75;;
39896;SDS011;25567;48.276;14.242;2023-01-25T15:33:46;34.40;;;13.43;;
39896;SDS011;25567;48.276;14.242;2023-01-25T15:36:13;42.53;;;14.23;;
39896;SDS011;25567;48.276;14.242;2023-01-25T15:38:40;40.85;;;13.88;;
39896;SDS011;25567;48.276;14.242;2023-01-25T15:41:07;43.28;;;14.77;;
39896;SDS011;25567;48.276;14.242;2023-01-25T15:43:34;43.50;;;14.50;;
39896;SDS011;25567;48.276;14.242;2023-01-25T15:46:01;36.55;;;13.80;;
39896;SDS011;25567;48.276;14.242;2023-01-25T15:48:32;39.17;;;13.55;;
39896;SDS011;25567;48.276;14.242;2023-01-25T15:51:01;37.97;;;13.82;;
39896;SDS011;25567;48.276;14.242;2023-01-25T15:53:28;39.53;;;13.68;;
39896;SDS011;25567;48.276;14.242;2023-01-25T15:55:57;33.45;;;13.13;;
39896;SDS011;25567;48.276;14.242;2023-01-25T15:58:29;41.47;;;13.70;;
39896;SDS011;25567;48.276;14.242;2023-01-25T16:01:02;39.53;;;13.38;;
39896;SDS011;25567;48.276;14.242;2023-01-25T16:03:28;42.15;;;13.98;;
39896;SDS011;25567;48.276;14.242;2023-01-25T16:06:01;40.70;;;14.35;;
39896;SDS011;25567;48.276;14.242;2023-01-25T16:08:31;36.72;;;13.23;;
39896;SDS011;25567;48.276;14.242;2023-01-25T16:10:58;31.77;;;12.32;;
39896;SDS011;25567;48.276;14.242;2023-01-25T16:13:25;48.72;;;14.40;;
39896;SDS011;25567;48.276;14.242;2023-01-25T16:15:52;44.08;;;15.00;;
39896;SDS011;25567;48.276;14.242;2023-01-25T16:18:21;35.03;;;13.57;;